createdAt,value
2023-06-06T00:00:09.024Z,18.95
2023-06-06T00:03:16.524Z,19.03
2023-06-06T00:06:22.167Z,19.07
2023-06-06T00:09:25.052Z,19.07
2023-06-06T00:12:29.862Z,19.01
2023-06-06T00:15:33.049Z,19.02
2023-06-06T00:18:36.545Z,19.02
2023-06-06T00:21:39.172Z,19.03
2023-06-06T00:24:42.032Z,18.98
2023-06-06T00:27:44.759Z,19.01
2023-06-06T00:30:47.695Z,18.98
2023-06-06T00:33:50.456Z,18.95
2023-06-06T00:36:53.434Z,18.95
2023-06-06T00:39:57.353Z,18.98
2023-06-06T00:43:00.314Z,18.96
2023-06-06T00:46:03.088Z,18.92
2023-06-06T00:49:06.676Z,18.92
2023-06-06T00:52:10.550Z,18.90
2023-06-06T00:55:18.939Z,18.89
2023-06-06T00:58:22.156Z,18.95
2023-06-06T01:01:30.131Z,18.94
2023-06-06T01:04:33.089Z,18.90
2023-06-06T01:07:39.186Z,18.91
2023-06-06T01:10:43.580Z,18.85
2023-06-06T01:13:56.266Z,18.88
2023-06-06T01:17:04.361Z,18.82
2023-06-06T01:20:09.103Z,18.83
2023-06-06T01:23:13.199Z,18.84
2023-06-06T01:26:16.258Z,18.80
2023-06-06T01:29:19.003Z,18.78
2023-06-06T01:32:39.155Z,18.76
2023-06-06T01:36:09.682Z,18.75
2023-06-06T01:39:16.504Z,18.75
2023-06-06T01:42:21.090Z,18.69
2023-06-06T01:45:30.870Z,18.72
2023-06-06T01:48:33.692Z,18.68
2023-06-06T01:51:38.048Z,18.67
2023-06-06T01:54:41.979Z,18.69
2023-06-06T01:57:44.965Z,18.68
2023-06-06T02:00:47.737Z,18.67
2023-06-06T02:03:50.941Z,18.62
2023-06-06T02:06:53.728Z,18.62
2023-06-06T02:09:56.944Z,18.60
2023-06-06T02:12:59.618Z,18.63
2023-06-06T02:16:02.652Z,18.61
2023-06-06T02:19:05.312Z,18.56
2023-06-06T02:22:08.414Z,18.61
2023-06-06T02:25:13.660Z,18.62
2023-06-06T02:28:16.876Z,18.64
2023-06-06T02:31:22.719Z,18.61
2023-06-06T02:34:26.153Z,18.60
2023-06-06T02:37:29.401Z,18.61
2023-06-06T02:40:32.437Z,18.58
2023-06-06T02:43:37.037Z,18.56
2023-06-06T02:46:40.184Z,18.55
2023-06-06T02:49:43.040Z,18.56
2023-06-06T02:52:46.034Z,18.54
2023-06-06T02:55:48.690Z,18.54
2023-06-06T02:58:52.624Z,18.56
2023-06-06T03:01:55.410Z,18.54
2023-06-06T03:04:58.467Z,18.55
2023-06-06T03:08:02.149Z,18.45
2023-06-06T03:11:05.227Z,18.55
2023-06-06T03:14:09.576Z,18.51
2023-06-06T03:17:13.039Z,18.49
2023-06-06T03:20:17.014Z,18.48
2023-06-06T03:23:24.184Z,18.47
2023-06-06T03:26:28.110Z,18.46
2023-06-06T03:29:31.931Z,18.45
2023-06-06T03:32:36.098Z,18.47
2023-06-06T03:35:39.485Z,18.48
2023-06-06T03:38:42.121Z,18.48
2023-06-06T03:41:45.428Z,18.51
2023-06-06T03:44:48.189Z,18.54
2023-06-06T03:47:51.954Z,18.48
2023-06-06T03:50:54.620Z,18.50
2023-06-06T03:53:57.833Z,18.51
2023-06-06T03:57:01.161Z,18.51
2023-06-06T04:00:12.156Z,18.51
2023-06-06T04:03:16.001Z,18.51
2023-06-06T04:06:21.443Z,18.53
2023-06-06T04:09:24.095Z,18.56
2023-06-06T04:12:27.433Z,18.56
2023-06-06T04:15:30.340Z,18.57
2023-06-06T04:18:33.324Z,18.61
2023-06-06T04:21:37.238Z,18.67
2023-06-06T04:24:40.172Z,18.64
2023-06-06T04:27:46.045Z,18.65
2023-06-06T04:30:54.330Z,18.60
2023-06-06T04:33:58.489Z,18.62
2023-06-06T04:37:05.574Z,18.66
2023-06-06T04:40:11.757Z,18.65
2023-06-06T04:43:18.372Z,18.63
2023-06-06T04:46:24.944Z,18.69
2023-06-06T04:49:29.622Z,18.71
2023-06-06T04:52:34.385Z,18.71
2023-06-06T04:55:37.527Z,18.70
2023-06-06T04:58:43.323Z,18.69
2023-06-06T05:01:48.030Z,18.68
2023-06-06T05:04:54.899Z,18.72
2023-06-06T05:07:57.858Z,18.62
2023-06-06T05:11:02.145Z,18.64
2023-06-06T05:14:05.881Z,18.61
2023-06-06T05:17:08.786Z,18.57
2023-06-06T05:20:12.199Z,18.54
2023-06-06T05:23:14.938Z,18.53
2023-06-06T05:26:17.999Z,18.44
2023-06-06T05:29:20.693Z,18.28
2023-06-06T05:32:23.750Z,18.36
2023-06-06T05:35:26.642Z,18.40
2023-06-06T05:38:29.766Z,18.36
2023-06-06T05:41:32.913Z,18.23
2023-06-06T05:44:36.681Z,18.34
2023-06-06T05:47:39.721Z,18.36
2023-06-06T05:50:44.736Z,18.40
2023-06-06T05:53:47.717Z,18.41
2023-06-06T05:56:51.671Z,18.45
2023-06-06T05:59:54.502Z,18.48
2023-06-06T06:02:59.427Z,18.64
2023-06-06T06:06:06.575Z,18.49
2023-06-06T06:09:09.808Z,18.59
2023-06-06T06:12:12.746Z,18.74
2023-06-06T06:15:15.610Z,18.68
2023-06-06T06:18:19.078Z,18.57
2023-06-06T06:21:22.700Z,18.56
2023-06-06T06:24:25.883Z,18.41
2023-06-06T06:27:28.520Z,18.36
2023-06-06T06:30:31.506Z,18.50
2023-06-06T06:33:35.082Z,18.53
2023-06-06T06:36:38.019Z,18.55
2023-06-06T06:39:41.129Z,18.63
2023-06-06T06:42:45.351Z,18.62
2023-06-06T06:45:48.587Z,18.70
2023-06-06T06:48:52.265Z,18.46
2023-06-06T06:51:55.918Z,18.59
2023-06-06T06:55:01.352Z,18.56
2023-06-06T06:58:07.136Z,18.48
2023-06-06T07:01:10.425Z,18.52
2023-06-06T07:04:13.371Z,18.69
2023-06-06T07:07:17.398Z,18.85
2023-06-06T07:10:21.531Z,18.69
2023-06-06T07:13:24.426Z,18.80
2023-06-06T07:16:27.533Z,19.04
2023-06-06T07:19:30.540Z,18.98
2023-06-06T07:22:39.727Z,18.95
2023-06-06T07:25:43.355Z,18.88
2023-06-06T07:28:48.025Z,19.21
2023-06-06T07:31:51.368Z,19.08
2023-06-06T07:34:54.082Z,19.18
2023-06-06T07:37:57.041Z,19.21
2023-06-06T07:40:59.883Z,19.34
2023-06-06T07:44:03.076Z,19.24
2023-06-06T07:47:05.950Z,19.10
2023-06-06T07:50:09.935Z,19.06
2023-06-06T07:53:12.863Z,19.16
2023-06-06T07:56:16.100Z,19.20
2023-06-06T07:59:18.916Z,19.21
2023-06-06T08:02:22.074Z,19.37
2023-06-06T08:05:25.260Z,19.58
2023-06-06T08:08:27.955Z,19.58
2023-06-06T08:11:30.922Z,19.49
2023-06-06T08:14:36.561Z,19.67
2023-06-06T08:17:39.606Z,19.82
2023-06-06T08:20:42.293Z,19.74
2023-06-06T08:23:45.397Z,19.62
2023-06-06T08:26:48.104Z,19.84
2023-06-06T08:29:51.800Z,19.81
2023-06-06T08:32:54.628Z,19.73
2023-06-06T08:35:59.828Z,19.79
2023-06-06T08:39:04.598Z,19.68
2023-06-06T08:42:10.782Z,19.57
2023-06-06T08:45:14.403Z,19.66
2023-06-06T08:48:19.114Z,19.54
2023-06-06T08:51:26.063Z,19.64
2023-06-06T08:54:30.092Z,19.57
2023-06-06T08:57:33.904Z,19.69
2023-06-06T09:00:36.824Z,19.81
2023-06-06T09:03:39.587Z,19.69
2023-06-06T09:06:45.885Z,19.43
2023-06-06T09:09:50.274Z,19.62
2023-06-06T09:12:53.333Z,19.75
2023-06-06T09:15:56.066Z,19.68
2023-06-06T09:18:59.949Z,19.84
2023-06-06T09:22:08.691Z,19.95
2023-06-06T09:25:26.147Z,19.86
2023-06-06T09:28:39.298Z,20.14
2023-06-06T09:31:43.419Z,20.19
2023-06-06T09:34:46.260Z,20.31
2023-06-06T09:37:50.561Z,20.38
2023-06-06T09:40:53.893Z,20.43
2023-06-06T09:43:56.952Z,20.65
2023-06-06T09:47:01.434Z,21.00
2023-06-06T09:50:05.190Z,21.31
2023-06-06T09:53:13.737Z,21.62
2023-06-06T09:56:17.079Z,21.74
2023-06-06T09:59:23.350Z,21.79
2023-06-06T10:02:30.262Z,21.70
2023-06-06T10:05:33.680Z,21.60
2023-06-06T10:08:38.852Z,21.51
2023-06-06T10:11:43.192Z,21.45
2023-06-06T10:14:46.426Z,21.54
2023-06-06T10:17:51.645Z,21.58
2023-06-06T10:20:56.270Z,21.56
2023-06-06T10:23:59.520Z,21.77
2023-06-06T10:27:28.441Z,21.74
2023-06-06T10:30:34.183Z,21.91
2023-06-06T10:33:45.976Z,21.88
2023-06-06T10:36:49.221Z,21.86
2023-06-06T10:40:03.574Z,22.08
2023-06-06T10:43:06.724Z,21.88
2023-06-06T10:46:09.888Z,22.12
2023-06-06T10:49:13.591Z,22.08
2023-06-06T10:52:16.240Z,21.97
2023-06-06T10:55:21.990Z,22.27
2023-06-06T10:58:34.543Z,22.08
2023-06-06T11:01:37.950Z,22.57
2023-06-06T11:04:41.067Z,22.88
2023-06-06T11:07:48.294Z,22.68
2023-06-06T11:10:50.970Z,22.85
2023-06-06T11:14:04.799Z,23.11
2023-06-06T11:17:12.434Z,22.76
2023-06-06T11:20:19.828Z,23.12
2023-06-06T11:23:23.362Z,23.27
2023-06-06T11:26:29.887Z,22.93
2023-06-06T11:29:33.476Z,23.28
2023-06-06T11:32:36.454Z,23.25
2023-06-06T11:35:42.018Z,23.36
2023-06-06T11:38:45.146Z,23.28
2023-06-06T11:41:50.371Z,23.14
2023-06-06T11:44:53.402Z,23.27
2023-06-06T11:48:06.704Z,23.43
2023-06-06T11:51:17.226Z,23.43
2023-06-06T11:54:20.669Z,23.50
2023-06-06T11:57:23.851Z,23.57
2023-06-06T12:00:28.735Z,23.56
2023-06-06T12:03:34.838Z,23.54
2023-06-06T12:06:37.639Z,23.58
2023-06-06T12:09:41.180Z,23.31
2023-06-06T12:12:45.055Z,23.61
2023-06-06T12:15:49.167Z,23.62
2023-06-06T12:18:52.743Z,23.47
2023-06-06T12:21:55.762Z,23.48
2023-06-06T12:24:58.460Z,23.85
2023-06-06T12:28:14.594Z,23.91
2023-06-06T12:31:21.639Z,23.52
2023-06-06T12:35:01.094Z,23.65
2023-06-06T12:38:05.471Z,23.71
2023-06-06T12:41:08.683Z,23.70
2023-06-06T12:44:13.922Z,23.65
2023-06-06T12:47:18.741Z,23.75
2023-06-06T12:50:23.410Z,23.70
2023-06-06T12:53:26.628Z,24.00
2023-06-06T12:56:29.852Z,24.17
2023-06-06T12:59:32.817Z,24.04
2023-06-06T13:02:36.095Z,24.20
2023-06-06T13:05:39.211Z,24.36
2023-06-06T13:08:42.815Z,24.34
2023-06-06T13:11:46.575Z,24.48
2023-06-06T13:14:49.485Z,24.42
2023-06-06T13:17:52.507Z,24.78
2023-06-06T13:20:57.365Z,24.69
2023-06-06T13:24:00.444Z,24.45
2023-06-06T13:27:03.185Z,24.73
2023-06-06T13:30:06.922Z,24.92
2023-06-06T13:33:09.680Z,25.02
2023-06-06T13:36:12.697Z,24.73
2023-06-06T13:39:16.170Z,24.63
2023-06-06T13:42:19.143Z,24.66
2023-06-06T13:45:21.920Z,24.49
2023-06-06T13:48:24.913Z,24.61
2023-06-06T13:51:28.520Z,24.60
2023-06-06T13:54:31.654Z,24.66
2023-06-06T13:57:41.909Z,24.20
2023-06-06T14:00:45.759Z,24.20
2023-06-06T14:03:50.404Z,24.28
2023-06-06T14:06:54.177Z,24.30
2023-06-06T14:09:57.719Z,24.67
2023-06-06T14:13:00.418Z,25.05
2023-06-06T14:16:04.201Z,24.89
2023-06-06T14:19:15.749Z,24.86
2023-06-06T14:22:34.996Z,25.30
2023-06-06T14:25:38.397Z,25.22
2023-06-06T14:28:42.109Z,25.77
2023-06-06T14:31:44.810Z,25.36
2023-06-06T14:34:48.890Z,25.20
2023-06-06T14:37:51.741Z,25.42
2023-06-06T14:40:55.498Z,24.91
2023-06-06T14:43:58.104Z,25.35
2023-06-06T14:47:01.266Z,25.12
2023-06-06T14:50:04.491Z,24.85
2023-06-06T14:53:07.531Z,24.60
2023-06-06T14:56:10.161Z,24.54
2023-06-06T14:59:14.114Z,25.18
2023-06-06T15:02:17.436Z,25.75
2023-06-06T15:05:21.393Z,25.75
2023-06-06T15:08:24.057Z,25.57
2023-06-06T15:11:27.138Z,25.29
2023-06-06T15:14:30.055Z,25.68
2023-06-06T15:17:33.326Z,25.39
2023-06-06T15:20:35.976Z,25.54
2023-06-06T15:23:39.077Z,26.31
2023-06-06T15:26:42.152Z,26.19
2023-06-06T15:29:48.273Z,26.10
2023-06-06T15:32:51.401Z,26.35
2023-06-06T15:35:57.505Z,26.34
2023-06-06T15:39:04.157Z,26.17
2023-06-06T15:42:08.369Z,26.29
2023-06-06T15:45:11.683Z,26.08
2023-06-06T15:48:17.827Z,25.26
2023-06-06T15:51:20.595Z,24.65
2023-06-06T15:54:23.807Z,24.00
2023-06-06T15:57:26.743Z,23.89
2023-06-06T16:00:30.858Z,23.81
2023-06-06T16:03:33.967Z,23.56
2023-06-06T16:06:36.811Z,23.59
2023-06-06T16:09:39.874Z,23.05
2023-06-06T16:12:42.944Z,23.35
2023-06-06T16:15:46.249Z,23.13
2023-06-06T16:18:49.604Z,23.17
2023-06-06T16:21:52.854Z,23.19
2023-06-06T16:24:56.015Z,23.09
2023-06-06T16:27:59.222Z,23.06
2023-06-06T16:31:02.070Z,22.99
2023-06-06T16:34:05.013Z,22.90
2023-06-06T16:37:07.722Z,22.99
2023-06-06T16:40:11.534Z,22.92
2023-06-06T16:43:14.458Z,22.83
2023-06-06T16:46:17.734Z,22.75
2023-06-06T16:49:20.528Z,22.76
2023-06-06T16:52:24.714Z,22.65
2023-06-06T16:55:27.555Z,22.30
2023-06-06T16:58:30.479Z,22.35
2023-06-06T17:01:33.280Z,22.24
2023-06-06T17:04:36.347Z,22.16
2023-06-06T17:07:39.058Z,22.09
2023-06-06T17:10:42.121Z,21.84
2023-06-06T17:13:45.089Z,21.87
2023-06-06T17:16:48.170Z,21.65
2023-06-06T17:19:50.874Z,21.81
2023-06-06T17:22:53.814Z,21.83
2023-06-06T17:25:56.499Z,21.78
2023-06-06T17:28:59.500Z,21.78
2023-06-06T17:32:02.176Z,21.69
2023-06-06T17:35:05.938Z,21.58
2023-06-06T17:38:08.677Z,21.36
2023-06-06T17:41:11.685Z,21.29
2023-06-06T17:44:14.350Z,21.23
2023-06-06T17:47:17.869Z,21.12
2023-06-06T17:50:20.754Z,21.01
2023-06-06T17:53:23.842Z,20.99
2023-06-06T17:56:33.924Z,20.89
2023-06-06T17:59:37.092Z,20.89
2023-06-06T18:02:39.720Z,20.75
2023-06-06T18:05:42.640Z,20.72
2023-06-06T18:08:45.258Z,20.68
2023-06-06T18:11:48.324Z,20.59
2023-06-06T18:14:53.076Z,20.46
2023-06-06T18:17:57.120Z,20.40
2023-06-06T18:20:59.903Z,20.11
2023-06-06T18:24:04.054Z,20.21
2023-06-06T18:27:07.521Z,20.19
2023-06-06T18:30:11.012Z,20.15
2023-06-06T18:33:13.839Z,20.03
2023-06-06T18:36:18.158Z,19.98
2023-06-06T18:39:21.343Z,19.94
2023-06-06T18:42:24.340Z,19.93
2023-06-06T18:45:27.401Z,19.76
2023-06-06T18:48:30.541Z,19.73
2023-06-06T18:51:33.353Z,19.49
2023-06-06T18:54:36.620Z,19.65
2023-06-06T18:57:39.446Z,19.59
2023-06-06T19:00:42.735Z,19.51
2023-06-06T19:03:48.971Z,19.48
2023-06-06T19:06:52.108Z,19.48
2023-06-06T19:09:56.605Z,19.51
2023-06-06T19:12:59.597Z,19.45
2023-06-06T19:16:03.133Z,19.44
2023-06-06T19:19:07.154Z,19.37
2023-06-06T19:22:09.862Z,19.35
2023-06-06T19:25:13.051Z,19.33
2023-06-06T19:28:15.865Z,19.30
2023-06-06T19:31:18.989Z,19.20
2023-06-06T19:34:21.827Z,19.04
2023-06-06T19:37:24.973Z,19.11
2023-06-06T19:40:27.880Z,19.04
2023-06-06T19:43:31.085Z,18.87
2023-06-06T19:46:34.126Z,18.76
2023-06-06T19:49:40.047Z,18.63
2023-06-06T19:52:43.167Z,18.54
2023-06-06T19:55:47.825Z,18.50
2023-06-06T19:58:50.543Z,18.50
2023-06-06T20:01:53.599Z,18.40
2023-06-06T20:04:56.760Z,18.31
2023-06-06T20:07:59.424Z,18.28
2023-06-06T20:11:02.472Z,18.13
2023-06-06T20:14:05.147Z,17.98
2023-06-06T20:17:08.466Z,17.92
2023-06-06T20:20:11.841Z,17.90
2023-06-06T20:23:14.826Z,17.86
2023-06-06T20:26:17.524Z,17.87
2023-06-06T20:29:20.498Z,17.70
2023-06-06T20:32:23.243Z,17.57
2023-06-06T20:35:26.262Z,17.60
2023-06-06T20:38:29.030Z,17.54
2023-06-06T20:41:33.246Z,17.51
2023-06-06T20:44:36.070Z,17.35
2023-06-06T20:47:41.110Z,17.27
2023-06-06T20:50:44.265Z,17.16
2023-06-06T20:53:47.198Z,17.17
2023-06-06T20:56:49.907Z,17.06
2023-06-06T20:59:54.023Z,16.97
2023-06-06T21:02:56.873Z,16.87
2023-06-06T21:05:59.910Z,16.92
2023-06-06T21:09:02.587Z,16.98
2023-06-06T21:12:07.384Z,17.07
2023-06-06T21:15:11.332Z,17.01
2023-06-06T21:18:14.394Z,16.87
2023-06-06T21:21:17.878Z,16.78
2023-06-06T21:24:20.852Z,16.69
2023-06-06T21:27:23.522Z,16.72
2023-06-06T21:30:26.538Z,16.77
2023-06-06T21:33:29.466Z,16.82
2023-06-06T21:36:32.616Z,16.86
2023-06-06T21:39:35.362Z,16.79
2023-06-06T21:42:38.294Z,16.71
2023-06-06T21:45:40.922Z,16.70
2023-06-06T21:48:44.071Z,16.52
2023-06-06T21:51:46.770Z,16.44
2023-06-06T21:54:49.660Z,16.56
2023-06-06T21:57:52.353Z,16.61
2023-06-06T22:00:55.413Z,16.50
2023-06-06T22:03:58.518Z,16.47
2023-06-06T22:07:04.135Z,16.26
2023-06-06T22:10:07.532Z,16.37
2023-06-06T22:13:10.208Z,16.21
2023-06-06T22:16:13.200Z,16.19
2023-06-06T22:19:15.829Z,16.30
2023-06-06T22:22:18.795Z,16.16
2023-06-06T22:25:21.749Z,16.16
2023-06-06T22:28:25.618Z,16.36
2023-06-06T22:31:28.278Z,16.41
2023-06-06T22:34:31.349Z,16.51
2023-06-06T22:37:34.112Z,16.49
2023-06-06T22:40:37.262Z,16.42
2023-06-06T22:43:39.933Z,16.40
2023-06-06T22:46:43.029Z,16.31
2023-06-06T22:49:45.771Z,16.25
2023-06-06T22:52:49.380Z,16.10
2023-06-06T22:55:52.041Z,15.95
2023-06-06T22:58:54.998Z,15.88
2023-06-06T23:01:57.743Z,15.80
2023-06-06T23:05:00.781Z,15.70
2023-06-06T23:08:03.550Z,15.60
2023-06-06T23:11:06.706Z,15.65
2023-06-06T23:14:09.339Z,15.66
2023-06-06T23:17:15.319Z,15.45
2023-06-06T23:20:18.679Z,15.45
2023-06-06T23:23:21.570Z,15.47
2023-06-06T23:26:24.233Z,15.43
2023-06-06T23:29:27.718Z,15.30
2023-06-06T23:32:30.508Z,15.21
2023-06-06T23:35:33.466Z,15.15
2023-06-06T23:38:36.174Z,15.16
2023-06-06T23:41:39.289Z,15.06
2023-06-06T23:44:42.411Z,14.94
2023-06-06T23:47:45.343Z,14.95
2023-06-06T23:50:47.938Z,14.83
2023-06-06T23:53:50.932Z,14.88
2023-06-06T23:56:53.650Z,14.76
2023-06-06T23:59:56.548Z,14.75
